createdAt,value
2018-11-23T00:00:26.081Z,1.20
2018-11-23T00:01:29.724Z,1.20
2018-11-23T00:02:33.373Z,1.20
2018-11-23T00:03:36.985Z,1.20
2018-11-23T00:04:40.905Z,1.20
2018-11-23T00:05:44.550Z,1.20
2018-11-23T00:07:03.289Z,1.20
2018-11-23T00:08:06.993Z,1.20
2018-11-23T00:09:10.602Z,1.20
2018-11-23T00:10:16.524Z,1.20
2018-11-23T00:11:20.140Z,1.20
2018-11-23T00:12:23.752Z,1.20
2018-11-23T00:13:27.364Z,1.20
2018-11-23T00:14:31.129Z,1.20
2018-11-23T00:15:34.791Z,1.20
2018-11-23T00:16:38.606Z,1.20
2018-11-23T00:17:42.222Z,1.10
2018-11-23T00:18:45.869Z,1.10
2018-11-23T00:19:49.509Z,1.20
2018-11-23T00:20:53.149Z,1.20
2018-11-23T00:21:56.899Z,1.20
2018-11-23T00:23:00.516Z,1.20
2018-11-23T00:24:04.149Z,1.20
2018-11-23T00:25:09.451Z,1.30
2018-11-23T00:26:13.069Z,1.20
2018-11-23T00:27:16.811Z,1.30
2018-11-23T00:28:20.460Z,1.30
2018-11-23T00:29:24.092Z,1.30
2018-11-23T00:30:29.143Z,1.30
2018-11-23T00:31:32.847Z,1.30
2018-11-23T00:32:36.501Z,1.30
2018-11-23T00:33:40.126Z,1.30
2018-11-23T00:34:43.804Z,1.30
2018-11-23T00:35:47.560Z,1.30
2018-11-23T00:36:51.624Z,1.20
2018-11-23T00:37:55.809Z,1.20
2018-11-23T00:38:59.468Z,1.20
2018-11-23T00:40:03.182Z,1.20
2018-11-23T00:41:06.939Z,1.20
2018-11-23T00:42:10.795Z,1.20
2018-11-23T00:43:14.441Z,1.10
2018-11-23T00:44:18.095Z,1.10
2018-11-23T00:45:22.316Z,1.10
2018-11-23T00:46:26.016Z,1.10
2018-11-23T00:47:29.684Z,1.10
2018-11-23T00:48:33.318Z,1.10
2018-11-23T00:49:36.963Z,1.10
2018-11-23T00:50:40.581Z,1.10
2018-11-23T00:51:44.268Z,1.10
2018-11-23T00:52:48.337Z,1.00
2018-11-23T00:53:52.008Z,1.00
2018-11-23T00:54:55.653Z,1.00
2018-11-23T00:55:59.301Z,1.00
2018-11-23T00:57:02.953Z,1.10
2018-11-23T00:58:06.568Z,1.00
2018-11-23T00:59:10.199Z,1.00
2018-11-23T01:00:16.470Z,1.00
2018-11-23T01:01:20.239Z,1.00
2018-11-23T01:02:23.904Z,1.00
2018-11-23T01:03:27.579Z,1.00
2018-11-23T01:04:31.591Z,1.00
2018-11-23T01:05:35.243Z,1.10
2018-11-23T01:06:38.887Z,1.10
2018-11-23T01:07:43.147Z,1.10
2018-11-23T01:08:46.769Z,1.10
2018-11-23T01:09:50.403Z,1.10
2018-11-23T01:10:54.053Z,1.10
2018-11-23T01:11:57.749Z,1.10
2018-11-23T01:13:01.381Z,1.10
2018-11-23T01:14:05.184Z,1.00
2018-11-23T01:15:09.426Z,1.00
2018-11-23T01:16:13.061Z,1.00
2018-11-23T01:17:16.704Z,1.00
2018-11-23T01:18:20.327Z,1.00
2018-11-23T01:19:23.929Z,1.00
2018-11-23T01:20:28.098Z,1.00
2018-11-23T01:21:31.716Z,1.00
2018-11-23T01:22:35.344Z,1.00
2018-11-23T01:23:38.966Z,1.00
2018-11-23T01:24:42.597Z,0.90
2018-11-23T01:25:46.294Z,1.00
2018-11-23T01:26:49.960Z,0.90
2018-11-23T01:27:54.472Z,0.90
2018-11-23T01:28:58.130Z,0.90
2018-11-23T01:30:01.789Z,0.90
2018-11-23T01:31:05.442Z,0.90
2018-11-23T01:32:09.178Z,0.90
2018-11-23T01:33:12.838Z,0.90
2018-11-23T01:34:16.477Z,1.00
2018-11-23T01:35:20.145Z,1.00
2018-11-23T01:36:23.890Z,1.00
2018-11-23T01:37:27.542Z,0.90
2018-11-23T01:38:31.203Z,0.90
2018-11-23T01:39:35.028Z,1.00
2018-11-23T01:40:38.812Z,1.00
2018-11-23T01:41:42.387Z,1.00
2018-11-23T01:42:46.513Z,1.00
2018-11-23T01:43:50.225Z,1.00
2018-11-23T01:44:53.844Z,1.00
2018-11-23T01:45:57.523Z,0.90
2018-11-23T01:47:01.140Z,0.90
2018-11-23T01:48:05.029Z,0.90
2018-11-23T01:49:08.693Z,0.90
2018-11-23T01:50:14.532Z,0.90
2018-11-23T01:51:18.389Z,0.90
2018-11-23T01:52:22.025Z,0.90
2018-11-23T01:53:25.692Z,0.90
2018-11-23T01:54:29.462Z,0.90
2018-11-23T01:55:33.040Z,0.90
2018-11-23T01:56:36.736Z,1.00
2018-11-23T01:57:41.109Z,1.00
2018-11-23T01:58:44.735Z,1.00
2018-11-23T01:59:48.420Z,1.00
2018-11-23T02:00:52.100Z,1.00
2018-11-23T02:01:55.825Z,1.00
2018-11-23T02:02:59.437Z,1.00
2018-11-23T02:04:03.060Z,1.00
2018-11-23T02:05:07.164Z,0.90
2018-11-23T02:06:10.742Z,0.90
2018-11-23T02:07:14.388Z,0.90
2018-11-23T02:08:18.040Z,0.90
2018-11-23T02:09:21.673Z,0.90
2018-11-23T02:10:25.316Z,0.90
2018-11-23T02:11:28.977Z,0.80
2018-11-23T02:12:32.640Z,0.90
2018-11-23T02:13:36.285Z,0.90
2018-11-23T02:14:39.981Z,0.80
2018-11-23T02:15:43.619Z,0.80
2018-11-23T02:16:47.337Z,0.80
2018-11-23T02:17:51.315Z,0.80
2018-11-23T02:18:54.929Z,0.80
2018-11-23T02:19:58.621Z,0.80
2018-11-23T02:21:02.272Z,0.80
2018-11-23T02:22:05.931Z,0.90
2018-11-23T02:23:10.372Z,0.90
2018-11-23T02:24:14.185Z,0.90
2018-11-23T02:25:17.896Z,0.90
2018-11-23T02:26:21.538Z,1.00
2018-11-23T02:27:25.253Z,1.00
2018-11-23T02:28:28.936Z,1.00
2018-11-23T02:29:32.647Z,1.00
2018-11-23T02:30:36.458Z,0.90
2018-11-23T02:31:40.060Z,0.90
2018-11-23T02:32:43.989Z,0.90
2018-11-23T02:33:48.129Z,0.90
2018-11-23T02:34:51.988Z,0.80
2018-11-23T02:35:55.643Z,0.80
2018-11-23T02:36:59.363Z,0.80
2018-11-23T02:38:02.994Z,0.90
2018-11-23T02:39:07.644Z,0.90
2018-11-23T02:40:12.504Z,0.90
2018-11-23T02:41:16.156Z,0.90
2018-11-23T02:42:19.897Z,0.90
2018-11-23T02:43:23.720Z,0.90
2018-11-23T02:44:34.192Z,0.90
2018-11-23T02:45:38.119Z,0.80
2018-11-23T02:46:41.756Z,0.90
2018-11-23T02:47:46.072Z,0.90
2018-11-23T02:48:49.710Z,0.90
2018-11-23T02:49:53.334Z,0.90
2018-11-23T02:50:56.945Z,0.90
2018-11-23T02:52:00.557Z,0.80
2018-11-23T02:53:04.249Z,0.90
2018-11-23T02:54:07.834Z,0.90
2018-11-23T02:55:13.584Z,0.80
2018-11-23T02:56:17.539Z,0.80
2018-11-23T02:57:21.163Z,0.80
2018-11-23T02:58:24.796Z,0.80
2018-11-23T02:59:28.443Z,0.80
2018-11-23T03:00:32.091Z,0.80
2018-11-23T03:01:35.718Z,0.80
2018-11-23T03:02:39.512Z,0.80
2018-11-23T03:03:43.171Z,0.80
2018-11-23T03:04:46.771Z,0.80
2018-11-23T03:05:50.471Z,0.80
2018-11-23T03:06:54.091Z,0.80
2018-11-23T03:07:57.780Z,0.90
2018-11-23T03:09:01.390Z,0.90
2018-11-23T03:10:06.108Z,0.90
2018-11-23T03:11:09.692Z,0.90
2018-11-23T03:12:13.285Z,0.90
2018-11-23T03:13:16.960Z,0.90
2018-11-23T03:14:20.572Z,0.90
2018-11-23T03:15:24.149Z,0.90
2018-11-23T03:16:27.756Z,0.90
2018-11-23T03:17:32.016Z,1.00
2018-11-23T03:18:35.613Z,1.00
2018-11-23T03:19:39.235Z,1.10
2018-11-23T03:20:42.869Z,1.10
2018-11-23T03:21:46.468Z,1.10
2018-11-23T03:22:50.245Z,1.00
2018-11-23T03:23:54.285Z,1.00
2018-11-23T03:24:57.904Z,1.00
2018-11-23T03:26:01.599Z,1.00
2018-11-23T03:27:05.241Z,1.00
2018-11-23T03:28:08.876Z,1.00
2018-11-23T03:29:12.476Z,1.00
2018-11-23T03:30:17.951Z,1.00
2018-11-23T03:31:22.020Z,1.00
2018-11-23T03:32:25.645Z,1.00
2018-11-23T03:33:29.297Z,0.90
2018-11-23T03:34:32.941Z,0.90
2018-11-23T03:35:36.602Z,0.90
2018-11-23T03:36:40.217Z,0.90
2018-11-23T03:37:44.915Z,1.00
2018-11-23T03:38:47.854Z,1.00
2018-11-23T03:39:51.472Z,0.90
2018-11-23T03:40:55.100Z,1.00
2018-11-23T03:41:58.730Z,1.00
2018-11-23T03:43:02.502Z,1.00
2018-11-23T03:44:06.236Z,1.00
2018-11-23T03:45:11.193Z,1.00
2018-11-23T03:46:14.842Z,1.00
2018-11-23T03:47:18.580Z,1.00
2018-11-23T03:48:22.252Z,1.00
2018-11-23T03:49:25.869Z,1.00
2018-11-23T03:50:29.578Z,1.00
2018-11-23T03:51:33.752Z,1.00
2018-11-23T03:52:37.607Z,1.00
2018-11-23T03:53:41.210Z,0.90
2018-11-23T03:54:44.833Z,0.90
2018-11-23T03:55:48.470Z,0.90
2018-11-23T03:56:52.190Z,1.00
2018-11-23T03:57:55.801Z,0.90
2018-11-23T03:58:59.473Z,0.90
2018-11-23T04:00:03.585Z,1.00
2018-11-23T04:01:07.338Z,1.00
2018-11-23T04:02:10.963Z,1.00
2018-11-23T04:03:14.609Z,1.00
2018-11-23T04:04:18.230Z,1.00
2018-11-23T04:05:21.890Z,1.00
2018-11-23T04:06:25.529Z,1.10
2018-11-23T04:07:29.194Z,1.00
2018-11-23T04:08:32.820Z,1.00
2018-11-23T04:09:36.528Z,1.00
2018-11-23T04:10:40.174Z,1.00
2018-11-23T04:11:43.786Z,1.00
2018-11-23T04:12:47.640Z,1.10
2018-11-23T04:13:51.450Z,1.10
2018-11-23T04:14:55.198Z,1.10
2018-11-23T04:15:58.826Z,1.10
2018-11-23T04:17:02.510Z,1.10
2018-11-23T04:18:06.260Z,1.10
2018-11-23T04:19:09.898Z,1.10
2018-11-23T04:20:15.704Z,1.10
2018-11-23T04:21:19.335Z,1.10
2018-11-23T04:22:22.961Z,1.10
2018-11-23T04:23:26.580Z,1.10
2018-11-23T04:24:30.217Z,1.10
2018-11-23T04:25:33.952Z,1.00
2018-11-23T04:26:37.532Z,1.00
2018-11-23T04:27:41.579Z,1.00
2018-11-23T04:28:45.229Z,1.00
2018-11-23T04:29:48.933Z,1.00
2018-11-23T04:30:52.533Z,0.90
2018-11-23T04:31:56.474Z,0.90
2018-11-23T04:33:00.094Z,0.90
2018-11-23T04:34:03.697Z,0.90
2018-11-23T04:35:09.194Z,0.90
2018-11-23T04:36:12.798Z,1.00
2018-11-23T04:37:16.389Z,0.90
2018-11-23T04:38:20.128Z,0.90
2018-11-23T04:39:23.773Z,0.90
2018-11-23T04:40:27.402Z,0.90
2018-11-23T04:41:31.057Z,1.00
2018-11-23T04:42:34.696Z,1.00
2018-11-23T04:43:38.386Z,1.00
2018-11-23T04:44:42.022Z,1.00
2018-11-23T04:45:45.701Z,1.00
2018-11-23T04:46:49.348Z,1.00
2018-11-23T04:47:52.949Z,1.10
2018-11-23T04:48:56.644Z,1.00
2018-11-23T04:50:01.303Z,1.10
2018-11-23T04:51:04.081Z,1.10
2018-11-23T04:52:07.865Z,1.10
2018-11-23T04:53:11.464Z,1.10
2018-11-23T04:54:15.450Z,1.00
2018-11-23T04:55:19.089Z,1.10
2018-11-23T04:56:22.827Z,1.10
2018-11-23T04:57:26.573Z,1.10
2018-11-23T04:58:30.232Z,1.10
2018-11-23T04:59:33.998Z,1.00
2018-11-23T05:00:37.644Z,1.10
2018-11-23T05:01:41.244Z,1.10
2018-11-23T05:02:45.646Z,1.10
2018-11-23T05:03:49.287Z,1.10
2018-11-23T05:04:52.917Z,1.10
2018-11-23T05:05:56.545Z,1.10
2018-11-23T05:07:00.200Z,1.10
2018-11-23T05:08:03.844Z,1.00
2018-11-23T05:09:08.809Z,1.00
2018-11-23T05:10:13.659Z,1.00
2018-11-23T05:11:17.256Z,1.00
2018-11-23T05:12:21.284Z,1.00
2018-11-23T05:13:24.939Z,1.00
2018-11-23T05:14:28.552Z,1.10
2018-11-23T05:15:32.196Z,1.10
2018-11-23T05:16:35.920Z,1.10
2018-11-23T05:17:39.866Z,1.10
2018-11-23T05:18:43.512Z,1.10
2018-11-23T05:19:47.184Z,1.10
2018-11-23T05:20:50.805Z,1.10
2018-11-23T05:21:54.441Z,1.10
2018-11-23T05:22:58.075Z,1.10
2018-11-23T05:24:01.748Z,1.10
2018-11-23T05:25:06.054Z,1.10
2018-11-23T05:26:09.677Z,1.10
2018-11-23T05:27:13.337Z,1.10
2018-11-23T05:28:16.933Z,1.10
2018-11-23T05:29:27.391Z,1.10
2018-11-23T05:30:31.051Z,1.10
2018-11-23T05:31:34.700Z,1.10
2018-11-23T05:32:38.686Z,1.10
2018-11-23T05:33:42.279Z,1.10
2018-11-23T05:34:45.870Z,1.10
2018-11-23T05:35:49.489Z,1.20
2018-11-23T05:36:53.140Z,1.10
2018-11-23T05:37:56.751Z,1.10
2018-11-23T05:39:00.496Z,1.10
2018-11-23T05:40:04.436Z,1.10
2018-11-23T05:41:08.175Z,1.10
2018-11-23T05:42:11.807Z,1.10
2018-11-23T05:43:15.446Z,1.10
2018-11-23T05:44:19.056Z,1.10
2018-11-23T05:45:23.006Z,1.10
2018-11-23T05:46:26.653Z,1.10
2018-11-23T05:47:30.267Z,1.10
2018-11-23T05:48:33.871Z,1.10
2018-11-23T05:49:37.577Z,1.10
2018-11-23T05:50:41.260Z,1.10
2018-11-23T05:51:44.900Z,1.10
2018-11-23T05:52:48.537Z,1.10
2018-11-23T05:53:52.276Z,1.10
2018-11-23T05:54:55.942Z,1.10
2018-11-23T05:55:59.582Z,1.10
2018-11-23T05:57:03.270Z,1.10
2018-11-23T05:58:06.920Z,1.10
2018-11-23T05:59:10.601Z,1.10
2018-11-23T06:00:18.385Z,1.10
2018-11-23T06:01:22.304Z,1.10
2018-11-23T06:02:26.445Z,1.10
2018-11-23T06:03:30.175Z,1.10
2018-11-23T06:04:33.818Z,1.10
2018-11-23T06:05:37.418Z,1.10
2018-11-23T06:06:42.443Z,1.10
2018-11-23T06:07:44.787Z,1.10
2018-11-23T06:08:48.481Z,1.10
2018-11-23T06:09:52.064Z,1.10
2018-11-23T06:10:55.726Z,1.10
2018-11-23T06:11:59.496Z,1.20
2018-11-23T06:13:03.108Z,1.20
2018-11-23T06:14:06.711Z,1.20
2018-11-23T06:15:12.404Z,1.20
2018-11-23T06:16:16.019Z,1.20
2018-11-23T06:17:19.776Z,1.20
2018-11-23T06:18:23.377Z,1.20
2018-11-23T06:19:27.105Z,1.20
2018-11-23T06:20:30.857Z,1.20
2018-11-23T06:21:34.586Z,1.20
2018-11-23T06:22:45.670Z,1.20
2018-11-23T06:23:49.308Z,1.20
2018-11-23T06:24:53.029Z,1.10
2018-11-23T06:26:09.959Z,1.10
2018-11-23T06:27:13.557Z,1.10
2018-11-23T06:28:17.172Z,1.10
2018-11-23T06:29:20.787Z,1.10
2018-11-23T06:30:24.483Z,1.10
2018-11-23T06:31:28.100Z,1.20
2018-11-23T06:32:43.425Z,1.20
2018-11-23T06:33:47.920Z,1.20
2018-11-23T06:34:51.585Z,1.20
2018-11-23T06:35:55.186Z,1.20
2018-11-23T06:36:58.947Z,1.20
2018-11-23T06:38:02.638Z,1.20
2018-11-23T06:39:08.410Z,1.20
2018-11-23T06:41:10.900Z,1.20
2018-11-23T06:42:14.506Z,1.20
2018-11-23T06:43:18.269Z,1.20
2018-11-23T06:44:27.569Z,1.20
2018-11-23T06:45:33.719Z,1.20
2018-11-23T06:46:37.352Z,1.20
2018-11-23T06:47:41.233Z,1.20
2018-11-23T06:48:44.849Z,1.30
2018-11-23T06:49:48.497Z,1.30
2018-11-23T06:50:52.131Z,1.30
2018-11-23T06:51:55.748Z,1.30
2018-11-23T06:52:59.362Z,1.30
2018-11-23T06:54:02.985Z,1.30
2018-11-23T06:55:06.899Z,1.30
2018-11-23T06:56:10.536Z,1.30
2018-11-23T06:57:14.171Z,1.30
2018-11-23T06:58:17.777Z,1.30
2018-11-23T06:59:21.397Z,1.30
2018-11-23T07:00:25.088Z,1.30
2018-11-23T07:01:28.735Z,1.30
2018-11-23T07:02:32.354Z,1.30
2018-11-23T07:03:35.973Z,1.30
2018-11-23T07:04:39.707Z,1.30
2018-11-23T07:05:43.309Z,1.30
2018-11-23T07:06:46.965Z,1.30
2018-11-23T07:07:50.592Z,1.40
2018-11-23T07:08:54.415Z,1.40
2018-11-23T07:09:58.023Z,1.40
2018-11-23T07:11:02.902Z,1.40
2018-11-23T07:12:06.499Z,1.40
2018-11-23T07:13:10.265Z,1.40
2018-11-23T07:14:13.920Z,1.40
2018-11-23T07:15:17.516Z,1.40
2018-11-23T07:16:21.160Z,1.40
2018-11-23T07:17:25.519Z,1.40
2018-11-23T07:18:29.372Z,1.40
2018-11-23T07:19:33.079Z,1.50
2018-11-23T07:20:36.693Z,1.50
2018-11-23T07:21:40.372Z,1.50
2018-11-23T07:22:44.269Z,1.50
2018-11-23T07:23:47.929Z,1.50
2018-11-23T07:24:51.648Z,1.50
2018-11-23T07:25:55.294Z,1.50
2018-11-23T07:26:58.952Z,1.50
2018-11-23T07:28:02.657Z,1.50
2018-11-23T07:29:06.362Z,1.50
2018-11-23T07:30:16.300Z,1.50
2018-11-23T07:31:19.940Z,1.50
2018-11-23T07:32:23.576Z,1.50
2018-11-23T07:33:27.265Z,1.50
2018-11-23T07:34:30.931Z,1.50
2018-11-23T07:35:34.676Z,1.60
2018-11-23T07:36:38.327Z,1.60
2018-11-23T07:37:41.991Z,1.60
2018-11-23T07:38:45.723Z,1.60
2018-11-23T07:40:00.867Z,1.60
2018-11-23T07:41:16.057Z,1.70
2018-11-23T07:42:22.664Z,1.70
2018-11-23T07:43:26.359Z,1.70
2018-11-23T07:44:30.080Z,1.70
2018-11-23T07:45:33.744Z,1.70
2018-11-23T07:46:37.600Z,1.70
2018-11-23T07:47:41.222Z,1.70
2018-11-23T07:48:44.899Z,1.70
2018-11-23T07:49:48.528Z,1.70
2018-11-23T07:50:52.294Z,1.70
2018-11-23T07:51:55.888Z,1.70
2018-11-23T07:52:59.537Z,1.70
2018-11-23T07:54:03.193Z,1.70
2018-11-23T07:55:08.899Z,1.70
2018-11-23T07:56:12.525Z,1.60
2018-11-23T07:57:16.179Z,1.60
2018-11-23T07:58:19.862Z,1.60
2018-11-23T07:59:23.554Z,1.70
2018-11-23T08:00:27.714Z,1.70
2018-11-23T08:01:31.358Z,1.70
2018-11-23T08:02:35.131Z,1.70
2018-11-23T08:03:38.768Z,1.70
2018-11-23T08:04:43.202Z,1.70
2018-11-23T08:05:46.868Z,1.70
2018-11-23T08:06:50.692Z,1.70
2018-11-23T08:07:54.308Z,1.70
2018-11-23T08:08:57.930Z,1.70
2018-11-23T08:10:00.853Z,1.70
2018-11-23T08:11:10.890Z,1.70
2018-11-23T08:12:14.535Z,1.70
2018-11-23T08:13:18.153Z,1.70
2018-11-23T08:14:22.247Z,1.80
2018-11-23T08:15:27.070Z,1.80
2018-11-23T08:16:30.651Z,1.80
2018-11-23T08:17:34.281Z,1.80
2018-11-23T08:18:37.904Z,1.80
2018-11-23T08:19:47.231Z,1.80
2018-11-23T08:20:45.151Z,1.80
2018-11-23T08:21:48.820Z,1.80
2018-11-23T08:22:52.473Z,1.90
2018-11-23T08:23:56.492Z,1.80
2018-11-23T08:25:00.281Z,1.80
2018-11-23T08:26:03.885Z,1.80
2018-11-23T08:27:07.488Z,1.80
2018-11-23T08:28:11.147Z,1.80
2018-11-23T08:29:14.777Z,1.80
2018-11-23T08:30:21.444Z,1.80
2018-11-23T08:31:25.110Z,1.80
2018-11-23T08:32:28.802Z,1.80
2018-11-23T08:33:32.404Z,1.80
2018-11-23T08:34:36.044Z,1.80
2018-11-23T08:35:39.704Z,1.80
2018-11-23T08:36:43.440Z,1.90
2018-11-23T08:37:47.052Z,1.90
2018-11-23T08:38:50.789Z,1.90
2018-11-23T08:39:54.413Z,1.90
2018-11-23T08:40:58.049Z,1.90
2018-11-23T08:42:01.650Z,1.90
2018-11-23T08:43:05.444Z,1.90
2018-11-23T08:44:09.137Z,1.90
2018-11-23T08:45:14.178Z,1.90
2018-11-23T08:46:17.840Z,1.90
2018-11-23T08:47:21.501Z,2.00
2018-11-23T08:48:25.129Z,1.90
2018-11-23T08:49:28.760Z,1.90
2018-11-23T08:50:32.424Z,2.00
2018-11-23T08:51:36.137Z,2.00
2018-11-23T08:52:39.773Z,2.00
2018-11-23T08:53:43.417Z,2.00
2018-11-23T08:54:47.796Z,2.00
2018-11-23T08:55:51.523Z,2.00
2018-11-23T08:56:55.197Z,2.00
2018-11-23T08:57:58.921Z,2.00
2018-11-23T08:59:02.556Z,2.00
2018-11-23T09:00:09.810Z,2.10
2018-11-23T09:01:13.448Z,2.10
2018-11-23T09:02:17.144Z,2.10
2018-11-23T09:03:20.768Z,2.10
2018-11-23T09:04:24.466Z,2.20
2018-11-23T09:05:28.116Z,2.20
2018-11-23T09:06:31.722Z,2.20
2018-11-23T09:07:35.372Z,2.20
2018-11-23T09:08:39.013Z,2.20
2018-11-23T09:09:42.677Z,2.20
2018-11-23T09:10:46.336Z,2.20
2018-11-23T09:11:50.071Z,2.20
2018-11-23T09:12:56.319Z,2.20
2018-11-23T09:13:59.908Z,2.20
2018-11-23T09:15:03.562Z,2.30
2018-11-23T09:16:07.546Z,2.30
2018-11-23T09:17:11.164Z,2.30
2018-11-23T09:18:14.783Z,2.30
2018-11-23T09:19:18.476Z,2.30
2018-11-23T09:20:22.368Z,2.30
2018-11-23T09:21:26.092Z,2.30
2018-11-23T09:22:29.943Z,2.30
2018-11-23T09:23:33.605Z,2.30
2018-11-23T09:24:37.265Z,2.40
2018-11-23T09:25:40.919Z,2.40
2018-11-23T09:26:44.557Z,2.40
2018-11-23T09:27:48.228Z,2.40
2018-11-23T09:28:51.849Z,2.40
2018-11-23T09:29:55.529Z,2.40
2018-11-23T09:30:59.204Z,2.40
2018-11-23T09:32:02.871Z,2.50
2018-11-23T09:33:06.512Z,2.50
2018-11-23T09:34:10.304Z,2.50
2018-11-23T09:35:14.154Z,2.50
2018-11-23T09:36:17.790Z,2.50
2018-11-23T09:37:21.508Z,2.50
2018-11-23T09:38:25.173Z,2.50
2018-11-23T09:39:28.804Z,2.50
2018-11-23T09:40:32.484Z,2.50
2018-11-23T09:41:36.196Z,2.50
2018-11-23T09:42:40.672Z,2.50
2018-11-23T09:43:44.334Z,2.50
2018-11-23T09:44:47.959Z,2.50
2018-11-23T09:45:51.642Z,2.50
2018-11-23T09:46:55.546Z,2.60
2018-11-23T09:48:00.562Z,2.60
2018-11-23T09:49:04.562Z,2.60
2018-11-23T09:50:10.816Z,2.60
2018-11-23T09:51:14.480Z,2.60
2018-11-23T09:52:18.300Z,2.50
2018-11-23T09:53:22.003Z,2.50
2018-11-23T09:54:25.599Z,2.50
2018-11-23T09:55:32.903Z,2.60
2018-11-23T09:56:36.714Z,2.60
2018-11-23T09:57:40.581Z,2.60
2018-11-23T09:58:44.253Z,2.60
2018-11-23T09:59:47.932Z,2.60
2018-11-23T10:00:51.894Z,2.60
2018-11-23T10:01:55.564Z,2.60
2018-11-23T10:02:59.677Z,2.60
2018-11-23T10:04:03.280Z,2.60
2018-11-23T10:05:09.429Z,2.50
2018-11-23T10:06:13.031Z,2.50
2018-11-23T10:07:16.660Z,2.50
2018-11-23T10:08:20.459Z,2.60
2018-11-23T10:09:24.140Z,2.60
2018-11-23T10:10:28.838Z,2.60
2018-11-23T10:11:33.595Z,2.60
2018-11-23T10:12:37.842Z,2.60
2018-11-23T10:13:41.643Z,2.60
2018-11-23T10:14:45.285Z,2.60
2018-11-23T10:15:48.928Z,2.60
2018-11-23T10:16:53.062Z,2.60
2018-11-23T10:17:57.028Z,2.60
2018-11-23T10:19:00.746Z,2.60
2018-11-23T10:20:06.094Z,2.60
2018-11-23T10:21:09.849Z,2.60
2018-11-23T10:22:13.458Z,2.60
2018-11-23T10:23:17.061Z,2.60
2018-11-23T10:24:20.748Z,2.60
2018-11-23T10:25:26.269Z,2.60
2018-11-23T10:26:29.902Z,2.60
2018-11-23T10:27:33.557Z,2.60
2018-11-23T10:28:37.169Z,2.60
2018-11-23T10:29:40.824Z,2.60
2018-11-23T10:30:44.617Z,2.60
2018-11-23T10:31:48.314Z,2.70
2018-11-23T10:32:53.181Z,2.60
2018-11-23T10:33:56.836Z,2.70
2018-11-23T10:35:00.471Z,2.70
2018-11-23T10:36:04.114Z,2.70
2018-11-23T10:37:07.723Z,2.60
2018-11-23T10:38:11.436Z,2.60
2018-11-23T10:39:15.680Z,2.70
2018-11-23T10:40:20.672Z,2.70
2018-11-23T10:41:24.290Z,2.70
2018-11-23T10:42:27.944Z,2.70
2018-11-23T10:43:31.559Z,2.70
2018-11-23T10:44:35.145Z,2.70
2018-11-23T10:45:39.007Z,2.70
2018-11-23T10:46:42.637Z,2.70
2018-11-23T10:47:46.859Z,2.70
2018-11-23T10:48:50.499Z,2.70
2018-11-23T10:49:54.563Z,2.70
2018-11-23T10:50:58.238Z,2.70
2018-11-23T10:52:02.045Z,2.70
2018-11-23T10:53:05.791Z,2.70
2018-11-23T10:54:09.424Z,2.80
2018-11-23T10:55:15.472Z,2.80
2018-11-23T10:56:19.065Z,2.80
2018-11-23T10:57:22.709Z,2.90
2018-11-23T10:58:26.348Z,2.90
2018-11-23T10:59:29.978Z,2.80
2018-11-23T11:00:39.093Z,2.80
2018-11-23T11:01:48.154Z,2.90
2018-11-23T11:02:58.417Z,2.80
2018-11-23T11:04:07.552Z,2.90
2018-11-23T11:05:16.658Z,2.90
2018-11-23T11:06:25.827Z,2.90
2018-11-23T11:07:29.489Z,2.80
2018-11-23T11:08:33.209Z,2.80
2018-11-23T11:09:37.354Z,2.80
2018-11-23T11:10:40.994Z,2.80
2018-11-23T11:11:44.632Z,2.70
2018-11-23T11:12:48.261Z,2.70
2018-11-23T11:13:51.958Z,2.70
2018-11-23T11:14:55.592Z,2.70
2018-11-23T11:15:59.267Z,2.80
2018-11-23T11:17:02.921Z,2.80
2018-11-23T11:18:06.659Z,2.80
2018-11-23T11:19:10.281Z,2.80
2018-11-23T11:20:13.962Z,2.70
2018-11-23T11:21:17.579Z,2.80
2018-11-23T11:22:21.187Z,2.80
2018-11-23T11:23:26.540Z,2.80
2018-11-23T11:24:30.211Z,2.80
2018-11-23T11:25:33.803Z,2.80
2018-11-23T11:26:37.424Z,2.90
2018-11-23T11:27:41.277Z,2.90
2018-11-23T11:28:44.932Z,2.90
2018-11-23T11:29:48.685Z,2.90
2018-11-23T11:30:52.338Z,2.90
2018-11-23T11:31:55.979Z,2.90
2018-11-23T11:32:59.633Z,2.90
2018-11-23T11:34:03.275Z,2.90
2018-11-23T11:35:07.541Z,2.90
2018-11-23T11:36:11.244Z,2.90
2018-11-23T11:37:14.936Z,3.00
2018-11-23T11:38:19.111Z,3.00
2018-11-23T11:39:22.728Z,3.00
2018-11-23T11:40:26.411Z,3.00
2018-11-23T11:41:30.017Z,3.00
2018-11-23T11:42:33.626Z,2.90
2018-11-23T11:43:37.918Z,2.90
2018-11-23T11:44:41.700Z,2.90
2018-11-23T11:45:45.401Z,2.90
2018-11-23T11:46:49.041Z,2.90
2018-11-23T11:47:52.706Z,2.90
2018-11-23T11:48:56.462Z,2.90
2018-11-23T11:50:00.118Z,2.90
2018-11-23T11:51:03.838Z,2.90
2018-11-23T11:52:07.409Z,2.90
2018-11-23T11:53:11.047Z,2.90
2018-11-23T11:54:14.668Z,2.90
2018-11-23T11:55:19.707Z,2.90
2018-11-23T11:56:23.324Z,2.90
2018-11-23T11:57:27.075Z,2.90
2018-11-23T11:58:30.801Z,2.90
2018-11-23T11:59:34.509Z,2.90
2018-11-23T12:00:38.131Z,2.90
2018-11-23T12:01:42.549Z,2.90
2018-11-23T12:02:46.582Z,2.90
2018-11-23T12:03:50.242Z,3.00
2018-11-23T12:04:53.867Z,2.90
2018-11-23T12:05:57.607Z,3.00
2018-11-23T12:07:01.305Z,2.90
2018-11-23T12:08:06.556Z,3.00
2018-11-23T12:09:11.181Z,3.00
2018-11-23T12:10:16.978Z,2.90
2018-11-23T12:11:20.840Z,3.00
2018-11-23T12:12:24.546Z,3.00
2018-11-23T12:13:28.243Z,3.00
2018-11-23T12:14:32.099Z,3.00
2018-11-23T12:15:35.745Z,3.00
2018-11-23T12:16:39.396Z,3.00
2018-11-23T12:17:43.384Z,3.00
2018-11-23T12:18:47.169Z,2.90
2018-11-23T12:19:50.877Z,3.00
2018-11-23T12:20:54.513Z,3.00
2018-11-23T12:21:58.353Z,3.00
2018-11-23T12:23:02.155Z,3.00
2018-11-23T12:24:05.939Z,2.90
2018-11-23T12:25:09.934Z,2.90
2018-11-23T12:26:13.595Z,2.90
2018-11-23T12:27:17.545Z,2.90
2018-11-23T12:28:21.571Z,2.90
2018-11-23T12:29:25.173Z,2.90
2018-11-23T12:30:28.833Z,2.90
2018-11-23T12:31:32.447Z,2.90
2018-11-23T12:32:36.097Z,2.90
2018-11-23T12:33:39.802Z,3.00
2018-11-23T12:34:43.702Z,3.00
2018-11-23T12:35:47.465Z,3.00
2018-11-23T12:36:51.146Z,3.10
2018-11-23T12:37:54.785Z,3.00
2018-11-23T12:38:58.513Z,3.00
2018-11-23T12:40:02.537Z,3.00
2018-11-23T12:41:06.162Z,3.10
2018-11-23T12:42:10.022Z,3.10
2018-11-23T12:43:13.712Z,3.10
2018-11-23T12:44:17.325Z,3.10
2018-11-23T12:45:22.551Z,3.10
2018-11-23T12:46:26.554Z,3.10
2018-11-23T12:47:30.284Z,3.10
2018-11-23T12:48:33.964Z,3.10
2018-11-23T12:49:37.749Z,3.10
2018-11-23T12:50:41.411Z,3.10
2018-11-23T12:51:45.078Z,3.10
2018-11-23T12:52:48.754Z,3.10
2018-11-23T12:53:52.398Z,3.10
2018-11-23T12:54:56.028Z,3.10
2018-11-23T12:56:00.313Z,3.10
2018-11-23T12:57:04.024Z,3.10
2018-11-23T12:58:07.683Z,3.10
2018-11-23T12:59:11.895Z,3.10
2018-11-23T13:00:20.466Z,3.10
2018-11-23T13:01:24.192Z,3.10
2018-11-23T13:02:27.941Z,3.10
2018-11-23T13:03:31.565Z,3.10
2018-11-23T13:04:36.191Z,3.10
2018-11-23T13:05:39.889Z,3.10
2018-11-23T13:06:43.526Z,3.10
2018-11-23T13:07:47.206Z,3.10
2018-11-23T13:08:50.941Z,3.10
2018-11-23T13:09:54.919Z,3.20
2018-11-23T13:10:58.570Z,3.20
2018-11-23T13:12:02.479Z,3.20
2018-11-23T13:13:06.838Z,3.20
2018-11-23T13:14:10.689Z,3.20
2018-11-23T13:15:14.424Z,3.20
2018-11-23T13:16:18.088Z,3.20
2018-11-23T13:17:22.309Z,3.20
2018-11-23T13:18:26.295Z,3.20
2018-11-23T13:19:29.937Z,3.20
2018-11-23T13:20:33.556Z,3.30
2018-11-23T13:21:37.171Z,3.30
2018-11-23T13:22:40.773Z,3.20
2018-11-23T13:23:44.461Z,3.20
2018-11-23T13:24:48.323Z,3.20
2018-11-23T13:25:51.960Z,3.20
2018-11-23T13:26:55.623Z,3.20
2018-11-23T13:27:59.589Z,3.20
2018-11-23T13:29:15.627Z,3.20
2018-11-23T13:30:11.751Z,3.20
2018-11-23T13:31:15.486Z,3.20
2018-11-23T13:32:19.130Z,3.20
2018-11-23T13:33:22.738Z,3.20
2018-11-23T13:34:26.487Z,3.30
2018-11-23T13:35:30.510Z,3.30
2018-11-23T13:36:34.202Z,3.30
2018-11-23T13:37:37.792Z,3.30
2018-11-23T13:38:41.442Z,3.30
2018-11-23T13:39:45.167Z,3.30
2018-11-23T13:40:48.875Z,3.30
2018-11-23T13:41:56.013Z,3.20
2018-11-23T13:43:00.733Z,3.20
2018-11-23T13:44:04.577Z,3.20
2018-11-23T13:45:09.672Z,3.30
2018-11-23T13:46:14.329Z,3.30
2018-11-23T13:47:17.973Z,3.30
2018-11-23T13:48:21.637Z,3.30
2018-11-23T13:49:25.349Z,3.30
2018-11-23T13:50:29.160Z,3.30
2018-11-23T13:51:32.831Z,3.30
2018-11-23T13:52:36.468Z,3.30
2018-11-23T13:53:40.171Z,3.30
2018-11-23T13:54:43.967Z,3.30
2018-11-23T13:55:47.630Z,3.30
2018-11-23T13:56:51.281Z,3.30
2018-11-23T13:57:54.903Z,3.30
2018-11-23T13:58:58.557Z,3.30
2018-11-23T14:00:02.344Z,3.30
2018-11-23T14:01:06.041Z,3.30
2018-11-23T14:02:09.792Z,3.30
2018-11-23T14:03:13.382Z,3.30
2018-11-23T14:04:17.051Z,3.40
2018-11-23T14:05:22.041Z,3.30
2018-11-23T14:06:25.699Z,3.40
2018-11-23T14:07:29.327Z,3.40
2018-11-23T14:08:32.992Z,3.40
2018-11-23T14:09:36.674Z,3.40
2018-11-23T14:10:40.342Z,3.50
2018-11-23T14:11:44.002Z,3.50
2018-11-23T14:12:47.809Z,3.50